Home > Products > Valid Products > TAF

000
FTUS44 KSHV 221300 AAA
TAFLFK
TAF AMD
KLFK 221331Z 2214/2312 16008KT 6SM BR OVC004
      TEMPO 2214/2215 1SM BR
     FM221600 22016G22KT P6SM OVC008
     FM221800 21008KT P6SM OVC012
     FM222100 22009KT P6SM BKN025
     FM230000 26004KT P6SM BKN025
     FM230400 33003KT P6SM OVC250=



000
FTUS44 KSHV 221300 AAA
TAFTXK
TAF AMD
KTXK 221331Z 2214/2312 17009KT P6SM OVC007
     FM221600 19008KT P6SM OVC007
     FM222000 22008KT P6SM OVC013
     FM230000 25007KT P6SM BKN017
     FM230400 30005KT P6SM SCT020 SCT100 BKN250
     FM230800 34003KT P6SM OVC250=



000
FTUS44 KSHV 221300 AAA
TAFGGG
TAF AMD
KGGG 221331Z 2214/2312 18008KT P6SM BKN010 OVC014
     FM221800 21015G23KT P6SM OVC013
     FM222100 22010KT P6SM OVC020
     FM230000 28006KT P6SM BKN025
     FM230400 30004KT P6SM SCT030 BKN150 BKN250
     FM230600 35004KT P6SM OVC250=



000
FTUS44 KSHV 221300 AAA
TAFMLU
TAF AMD
KMLU 221330Z 2214/2312 14004KT 6SM BR OVC003
      TEMPO 2214/2215 1/2SM FG OVC005
     FM221500 17005KT 2SM BR OVC004
     FM221600 17006KT 5SM BR OVC007
     FM221800 19008KT P6SM OVC009
     FM222100 19008KT P6SM OVC012
     FM230300 24007KT P6SM OVC007=



000
FTUS44 KSHV 221100
TAFMLU
TAF
KMLU 221121Z 2212/2312 14004KT 6SM BR OVC003
      TEMPO 2212/2214 2SM BR OVC005
     FM221400 17005KT 2SM BR OVC004
     FM221600 17006KT 5SM BR OVC007
     FM221800 19008KT P6SM OVC009
     FM222100 19008KT P6SM OVC012
     FM230300 24007KT P6SM OVC007=



000
FTUS44 KSHV 221100
TAFGGG
TAF
KGGG 221121Z 2212/2312 18010KT P6SM OVC011
     FM221800 21015G23KT P6SM OVC013
     FM222100 22010KT P6SM OVC020
     FM230000 28006KT P6SM BKN025
     FM230400 30004KT P6SM SCT030 BKN150 BKN250
     FM230600 35004KT P6SM OVC250=



000
FTUS44 KSHV 221100
TAFSHV
TAF
KSHV 221121Z 2212/2312 17009KT P6SM OVC005
     FM221600 18008KT P6SM OVC007
     FM222000 20009KT P6SM OVC015
     FM230000 28006KT P6SM OVC020
     FM230600 30004KT P6SM OVC250=



000
FTUS44 KSHV 221100
TAFTYR
TAF
KTYR 221121Z 2212/2312 19010KT P6SM BKN014 OVC020
     FM221600 21013G20KT P6SM OVC013
     FM222100 22010KT P6SM OVC020
     FM230000 29005KT P6SM BKN025
     FM230200 31004KT P6SM SCT030 BKN150 BKN250
     FM230700 03003KT P6SM OVC250=



000
FTUS44 KSHV 221100
TAFELD
TAF
KELD 221121Z 2212/2312 14007KT P6SM OVC003
     FM221600 17007KT 6SM BR OVC007
     FM221800 18007KT P6SM OVC008
     FM222000 19007KT P6SM OVC013
     FM230200 25005KT P6SM OVC017
     FM230800 33003KT P6SM OVC250=



000
FTUS44 KSHV 221100
TAFTXK
TAF
KTXK 221121Z 2212/2312 17009KT P6SM OVC010
     FM221600 19008KT P6SM OVC007
     FM222000 22008KT P6SM OVC013
     FM230000 25007KT P6SM BKN017
     FM230400 30005KT P6SM SCT020 SCT100 BKN250
     FM230800 34003KT P6SM OVC250=



000
FTUS44 KSHV 221100
TAFLFK
TAF
KLFK 221121Z 2212/2312 15007KT 2SM BR OVC002
      TEMPO 2212/2215 1SM BR
     FM221600 22016G22KT P6SM OVC008
     FM221800 21008KT P6SM OVC012
     FM222100 22009KT P6SM BKN025
     FM230000 26004KT P6SM BKN025
     FM230400 33003KT P6SM OVC250=



000
FTUS44 KSHV 220800 AAA
TAFMLU
TAF AMD
KMLU 220848Z 2209/2306 22005KT 6SM BR BKN004 BKN015
      TEMPO 2209/2213 2SM BR OVC005
     FM221300 17005KT 2SM BR OVC004
     FM221600 17006KT 5SM BR OVC007
     FM221800 19008KT P6SM OVC009
     FM222100 19008KT P6SM OVC012=



000
FTUS44 KSHV 220800 AAA
TAFSHV
TAF AMD
KSHV 220848Z 2209/2306 15008KT 6SM BR OVC004
     FM221600 18008KT P6SM OVC007
     FM222000 20009KT P6SM OVC015
     FM230000 28006KT P6SM OVC020=



000
FTUS44 KSHV 220500 RRA
TAFLFK
TAF
KLFK 220541Z 2206/2306 15007KT P6SM FEW007 OVC035
      TEMPO 2207/2210 BKN007
     FM221000 16007KT 5SM BR OVC007
     FM221600 19008KT P6SM OVC008
     FM221800 21008KT P6SM OVC012
     FM222100 22009KT P6SM BKN025
     FM230000 26004KT P6SM BKN025=



000
FTUS44 KSHV 220500 RRA
TAFELD
TAF
KELD 220541Z 2206/2306 14005KT P6SM SCT012 SCT250
      TEMPO 2207/2209 BKN007
     FM220900 16005KT 5SM BR OVC007
     FM221600 17007KT 6SM BR OVC007
     FM221800 18007KT P6SM OVC008
     FM222000 19007KT P6SM OVC013
     FM230200 25005KT P6SM OVC017=



000
FTUS44 KSHV 220500 RRA
TAFGGG
TAF
KGGG 220541Z 2206/2306 18007KT P6SM OVC028
      TEMPO 2208/2211 OVC008
     FM221100 18010KT P6SM OVC008
     FM221800 21010KT P6SM OVC013
     FM222100 22010KT P6SM OVC020
     FM230000 28006KT P6SM BKN025
     FM230400 30004KT P6SM SCT030 BKN150 BKN250=



000
FTUS44 KSHV 220500 RRA
TAFTYR
TAF
KTYR 220541Z 2206/2306 18008KT P6SM BKN016 OVC035
      TEMPO 2208/2211 OVC008
     FM221100 19011KT P6SM OVC008
     FM221800 21010KT P6SM OVC013
     FM222100 22010KT P6SM OVC020
     FM230000 29005KT P6SM BKN025
     FM230200 31004KT P6SM SCT030 BKN150 BKN250=



000
FTUS44 KSHV 220500 RRA
TAFSHV
TAF
KSHV 220541Z 2206/2306 17006KT P6SM BKN006 BKN012
      TEMPO 2206/2207 SCT006
     FM220800 17007KT 5SM BR OVC007
     FM221600 18008KT P6SM OVC007
     FM222000 20009KT P6SM OVC015
     FM230000 28006KT P6SM OVC020=



000
FTUS44 KSHV 220500 RRA
TAFTXK
TAF
KTXK 220541Z 2206/2306 19006KT P6SM OVC016
      TEMPO 2209/2211 5SM BR BKN009 OVC015
     FM221100 18006KT 6SM BR OVC007
     FM221600 19008KT P6SM OVC007
     FM222000 22008KT P6SM OVC013
     FM230000 25007KT P6SM BKN017
     FM230400 26005KT P6SM SCT020 SCT100 BKN250=



000
FTUS44 KSHV 220500 RRA
TAFMLU
TAF
KMLU 220541Z 2206/2306 16003KT 6SM BR FEW018 SCT080
      TEMPO 2206/2208 5SM BR BKN007
     FM220800 16004KT 5SM BR OVC007
      TEMPO 2209/2213 2SM BR OVC005
     FM221300 17005KT 2SM BR OVC004
     FM221600 17006KT 5SM BR OVC007
     FM221800 19008KT P6SM OVC009
     FM222100 19008KT P6SM OVC012=



000
FTUS44 KSHV 212300 RRA
TAFMLU
TAF
KMLU 212344Z 2200/2224 12003KT P6SM FEW250
     FM220300 14003KT P6SM BKN250
     FM220600 16003KT 5SM BR BKN018
     FM220900 16003KT 4SM BR OVC008
     FM221600 17006KT P6SM OVC007
     FM222100 17008KT P6SM OVC012=



000
FTUS44 KSHV 212300 RRA
TAFELD
TAF
KELD 212344Z 2200/2224 12003KT P6SM SCT250
     FM220700 16004KT 6SM BR BKN025
     FM220900 16004KT 5SM BR SCT008 BKN015
      TEMPO 2209/2212 BKN008
     FM221200 16005KT 6SM BR OVC007
     FM221800 16007KT P6SM OVC007=



000
FTUS44 KSHV 212300 RRA
TAFTYR
TAF
KTYR 212344Z 2200/2224 17009KT P6SM OVC020
     FM220500 17008KT P6SM OVC015
     FM220800 18011KT P6SM OVC007
     FM221800 19010KT P6SM OVC013
     FM222100 19009KT P6SM OVC018=



000
FTUS44 KSHV 212300 RRA
TAFGGG
TAF
KGGG 212344Z 2200/2224 17005KT P6SM OVC017
     FM220800 17008KT P6SM OVC007
     FM221800 18008KT P6SM OVC010=



000
FTUS44 KSHV 212300 RRA
TAFLFK
TAF
KLFK 212344Z 2200/2224 14006KT P6SM OVC020
     FM220600 15006KT P6SM OVC007
      TEMPO 2209/2213 4SM BR
     FM221800 18008KT P6SM OVC010
     FM222000 18008KT P6SM OVC017=



000
FTUS44 KSHV 212300 RRA
TAFTXK
TAF
KTXK 212344Z 2200/2224 16005KT P6SM BKN028
     FM220400 16005KT P6SM OVC018
     FM220900 16006KT P6SM OVC007
     FM221600 18008KT P6SM OVC007
     FM222100 18008KT P6SM OVC013=



000
FTUS44 KSHV 212300 RRA
TAFSHV
TAF
KSHV 212344Z 2200/2224 17005KT P6SM SCT030 BKN250
      TEMPO 2200/2201 BKN030
     FM220400 17005KT P6SM BKN019
     FM220800 17005KT P6SM OVC007
     FM221500 18008KT P6SM OVC007
     FM222000 18008KT P6SM OVC013=



000
FTUS44 KSHV 212100 AAA
TAFLFK
TAF AMD
KLFK 212137Z 2122/2218 00000KT P6SM OVC017
     FM212300 15005KT P6SM SCT020 BKN045
     FM220500 16005KT 4SM BR OVC015
     FM220900 17007KT 1SM BR OVC007
      TEMPO 2211/2215 1/2SM DZ FG OVC004
     FM221600 17008KT 4SM BR OVC014=



000
FTUS44 KSHV 212100 AAA
TAFTYR
TAF AMD
KTYR 212136Z 2122/2218 17010KT P6SM OVC018
     FM220000 17007KT P6SM SCT020 BKN045
     FM220500 17013KT 4SM BR OVC025
     FM220800 18013KT 4SM BR OVC007
     FM221500 17012KT P6SM OVC014=



000
FTUS44 KSHV 211700
TAFGGG
TAF
KGGG 211739Z 2118/2218 16005KT P6SM SCT007 OVC025
     FM220000 16006KT P6SM SCT025 BKN045
     FM220500 17008KT 6SM BR OVC025
     FM220800 17010KT 3SM BR OVC007
      TEMPO 2211/2215 1/2SM DZ FG OVC004
     FM221600 17012KT 4SM BR OVC004=



000
FTUS44 KSHV 211700
TAFTYR
TAF
KTYR 211739Z 2118/2218 16005KT P6SM FEW009 OVC017
     FM212000 15008KT P6SM OVC022
     FM220000 17007KT P6SM SCT025 BKN045
     FM220500 17013KT 4SM BR OVC025
     FM220800 18013KT 4SM BR OVC007
     FM221500 17012KT P6SM OVC014=



000
FTUS44 KSHV 211700
TAFTXK
TAF
KTXK 211739Z 2118/2218 00000KT P6SM OVC040
     FM220000 15005KT P6SM BKN050
     FM220900 17008KT 4SM BR OVC007=



000
FTUS44 KSHV 211700
TAFLFK
TAF
KLFK 211739Z 2118/2218 00000KT P6SM OVC023
     FM212000 15006KT P6SM SCT025 BKN045
     FM220500 16005KT 4SM BR OVC015
     FM220900 17007KT 1SM BR OVC007
      TEMPO 2211/2215 1/2SM DZ FG OVC004
     FM221600 17008KT 4SM BR OVC014=



000
FTUS44 KSHV 211700
TAFSHV
TAF
KSHV 211739Z 2118/2218 15005KT P6SM FEW013 BKN040
     FM220000 15005KT P6SM SCT040
     FM220600 18006KT 4SM BR OVC015
     FM220800 17005KT 2SM BR OVC007
      TEMPO 2211/2215 1SM -DZ BR OVC003
     FM221600 18008KT 4SM BR OVC004=



000
FTUS44 KSHV 211700
TAFMLU
TAF
KMLU 211739Z 2118/2218 10006KT P6SM SKC
     FM220700 13004KT 4SM BR SCT015
     FM220900 16004KT 2SM BR BKN008
      TEMPO 2211/2215 3/4SM -DZ BR OVC004=



000
FTUS44 KSHV 211700
TAFELD
TAF
KELD 211739Z 2118/2218 10005KT P6SM SCT040
     FM220000 13005KT P6SM BKN050
     FM220600 16004KT 5SM BR BKN015
     FM220900 16004KT 2SM BR BKN008
      TEMPO 2211/2215 3/4SM -DZ BR OVC004
     FM221600 16007KT 4SM BR OVC004=



000
FTUS44 KSHV 211400 AAA
TAFGGG
TAF AMD
KGGG 211452Z 2115/2212 00000KT 1/2SM FG VV002
      TEMPO 2115/2116 3SM BR BKN005
     FM211600 14004KT P6SM SCT008 BKN025
     FM211800 15007KT P6SM SCT030 SCT250
     FM220000 16006KT P6SM SCT035 SCT250
     FM220500 17008KT 4SM BR OVC025
     FM220800 17010KT 1SM BR OVC015=



000
FTUS44 KSHV 211300 AAA
TAFTYR
TAF AMD
KTYR 211324Z 2113/2212 00000KT 6SM BR FEW025 OVC035
      TEMPO 2113/2115 BKN007
     FM211600 14006KT P6SM SCT008 BKN015
     FM212000 15008KT P6SM BKN030
     FM220000 17007KT P6SM SCT035 SCT250
     FM220500 17013KT 4SM BR OVC025
     FM220800 18013KT 4SM BR OVC015=



000
FTUS44 KSHV 211300 AAA
TAFTYR
TAF AMD
KTYR 211324Z 2113/2212 00000KT 6SM BR FEW025 OVC035
      TEMPO 2113/2115 BKN007
     FM211600 14006KT P6SM SCT008 BKN015
     FM212000 15008KT P6SM BKN030
     FM220000 17007KT P6SM SCT035 SCT250
     FM220500 17013KT 4SM BR OVC025
     FM220800 18013KT 4SM BR OVC015=



000
FTUS44 KSHV 211300 AAA
TAFSHV
TAF AMD
KSHV 211323Z 2113/2212 00000KT P6SM MIFG FEW045 FEW270
     FM211600 10004KT 6SM BR FEW007 SCT250
     FM211800 13005KT P6SM FEW035 SCT250
     FM220000 15005KT P6SM SCT250
     FM220600 18006KT 4SM BR OVC015=



000
FTUS44 KSHV 211300 AAA
TAFSHV
TAF AMD
KSHV 211323Z 2113/2212 00000KT P6SM MIFG FEW045 FEW270
     FM211600 10004KT 6SM BR FEW007 SCT250
     FM211800 13005KT P6SM FEW035 SCT250
     FM220000 15005KT P6SM SCT250
     FM220600 18006KT 4SM BR OVC015=



000
FTUS44 KSHV 211300 AAA
TAFTXK
TAF AMD
KTXK 211323Z 2113/2212 06005KT 3SM BR OVC045
     FM211600 14005KT P6SM SCT250
     FM211700 15006KT P6SM SCT035 SCT250
     FM220000 15005KT P6SM BKN250
     FM220800 17008KT 4SM BR OVC250=



000
FTUS44 KSHV 211300 AAA
TAFTXK
TAF AMD
KTXK 211323Z 2113/2212 06005KT 3SM BR OVC045
     FM211600 14005KT P6SM SCT250
     FM211700 15006KT P6SM SCT035 SCT250
     FM220000 15005KT P6SM BKN250
     FM220800 17008KT 4SM BR OVC250=



000
FTUS44 KSHV 211100
TAFMLU
TAF
KMLU 211120Z 2112/2212 07003KT P6SM SKC
      TEMPO 2112/2114 4SM BR
     FM211500 07003KT P6SM SCT250
     FM211800 11004KT P6SM SCT250
     FM220000 14003KT P6SM BKN060
     FM220700 18004KT 4SM BR OVC015
     FM221000 18004KT 4SM BR OVC007=



000
FTUS44 KSHV 211100
TAFTXK
TAF
KTXK 211120Z 2112/2212 05004KT 4SM BR SCT060
      TEMPO 2112/2116 1SM BR OVC007
     FM211600 14005KT P6SM SCT250
     FM211700 15006KT P6SM SCT035 SCT250
     FM220000 15005KT P6SM BKN250
     FM220800 17008KT 4SM BR OVC250=



000
FTUS44 KSHV 211100
TAFGGG
TAF
KGGG 211120Z 2112/2212 00000KT 5SM BR FEW002 OVC040
      TEMPO 2112/2114 1/4SM FG VV001
     FM211600 14004KT P6SM BKN008 BKN250
     FM211800 15007KT P6SM SCT030 SCT250
     FM220000 16006KT P6SM SCT035 SCT250
     FM220500 17008KT 4SM BR OVC025
     FM220800 17010KT 1SM BR OVC015=



000
FTUS44 KSHV 211100
TAFELD
TAF
KELD 211120Z 2112/2212 03003KT 5SM BR SKC
      TEMPO 2112/2114 3SM BR
     FM211500 VRB03KT P6SM SCT250
     FM211800 12005KT P6SM SCT250
     FM220000 13003KT P6SM SCT250
     FM220600 16004KT 4SM BR OVC015=



000
FTUS44 KSHV 211100
TAFSHV
TAF
KSHV 211120Z 2112/2212 29004KT 4SM BCFG FEW001
      TEMPO 2114/2116 1SM BR BKN001
     FM211600 10004KT 6SM BR FEW007 SCT250
     FM211800 13005KT P6SM FEW035 SCT250
     FM220000 15005KT P6SM SCT250
     FM220600 18006KT 4SM BR OVC015=



000
FTUS44 KSHV 211100
TAFLFK
TAF
KLFK 211120Z 2112/2212 00000KT 3SM BR OVC028
      TEMPO 2112/2115 1/2SM FG BKN002
     FM211600 14005KT 6SM BR SCT008 BKN012
     FM211800 15005KT P6SM SCT017 SCT250
     FM212000 15006KT P6SM SCT035 SCT250
     FM220500 16005KT 4SM BR OVC025
     FM220900 17007KT 1SM BR OVC007=



000
FTUS44 KSHV 211100
TAFTYR
TAF
KTYR 211120Z 2112/2212 00000KT 6SM BR FEW025 OVC035
      TEMPO 2112/2115 2SM BR BKN008
     FM211600 14006KT P6SM SCT008 BKN015
     FM212000 15008KT P6SM BKN030
     FM220000 17007KT P6SM SCT035 SCT250
     FM220500 17013KT 4SM BR OVC025
     FM220800 18013KT 4SM BR OVC015=



000
FTUS44 KSHV 210900 AAA
TAFTXK
TAF AMD
KTXK 210958Z 2110/2206 05003KT 1SM BR SKC
      TEMPO 2110/2112 1/2SM FG
     FM211200 VRB03KT 3SM BR SKC
     FM211500 12004KT P6SM SCT250
     FM211700 15006KT P6SM SCT035 SCT250=



000
FTUS44 KSHV 210900 AAA
TAFTXK
TAF AMD
KTXK 210958Z 2110/2206 05003KT 1SM BR SKC
      TEMPO 2110/2112 1/2SM FG
     FM211200 VRB03KT 3SM BR SKC
     FM211500 12004KT P6SM SCT250
     FM211700 15006KT P6SM SCT035 SCT250=



000
FTUS44 KSHV 210900 AAA
TAFTYR
TAF AMD
KTYR 210917Z 2109/2206 00000KT 6SM BR OVC040
      TEMPO 2109/2112 2SM BR SCT002
     FM211200 12004KT 4SM BR SCT002
      TEMPO 2112/2115 2SM BR
     FM211600 14005KT P6SM SCT008 BKN025
     FM211800 15008KT P6SM SCT008 OVC017
     FM212000 15008KT P6SM BKN030
     FM220000 17007KT P6SM SCT035 SCT250=



000
FTUS44 KSHV 210700 AAA
TAFLFK
TAF AMD
KLFK 210749Z 2108/2206 00000KT 5SM BR SKC
     FM210900 00000KT 4SM BR SCT002
      TEMPO 2109/2113 1/2SM FG BKN002
     FM211300 00000KT 2SM BR SCT002
      TEMPO 2113/2115 1/2SM FG BKN002
     FM211600 14005KT 6SM BR SCT008 BKN012
     FM211800 15005KT P6SM SCT017 SCT250
     FM212000 15006KT P6SM SCT035 SCT250=



000
FTUS44 KSHV 210700 AAB
TAFLFK
TAF AMD
KLFK 210749Z 2108/2206 00000KT 4SM BR SCT002 SCT045
      TEMPO 2109/2113 1/2SM FG BKN002
     FM211300 00000KT 2SM BR SCT002
      TEMPO 2113/2115 1/2SM FG BKN002
     FM211600 14005KT 6SM BR SCT008 BKN012
     FM211800 15005KT P6SM SCT017 SCT250
     FM212000 15006KT P6SM SCT035 SCT250=



000
FTUS44 KSHV 210500 CCA
TAFSHV
TAF COR
KSHV 210556Z 2106/2206 00000KT 3SM BR SCT002
      TEMPO 2106/2108 1/4SM FG VV002
     FM210800 00000KT 1/4SM FG VV002
      TEMPO 2108/2112 2SM BR SCT002
     FM211200 00000KT 1/4SM FG VV001
      TEMPO 2114/2116 2SM BR SCT001
     FM211600 10004KT 6SM BR FEW007 SCT250
     FM211800 13005KT P6SM FEW035 SCT250
     FM220000 15005KT P6SM SCT250=



000
FTUS44 KSHV 210500
TAFLFK
TAF
KLFK 210539Z 2106/2206 00000KT 5SM BR SKC
     FM210900 00000KT 4SM BR SCT002
      TEMPO 2109/2113 1/2SM FG BKN002
     FM211300 00000KT 2SM BR SCT002
      TEMPO 2113/2115 1/2SM FG BKN002
     FM211600 14005KT 6SM BR SCT008 BKN012
     FM211800 15005KT P6SM SCT017 SCT250
     FM212000 15006KT P6SM SCT035 SCT250=



000
FTUS44 KSHV 210500
TAFTXK
TAF
KTXK 210539Z 2106/2206 VRB03KT P6SM SCT035
     FM210800 VRB03KT 6SM BR SKC
      TEMPO 2108/2112 3SM BR
     FM211200 VRB03KT 3SM BR SKC
     FM211500 12004KT P6SM SCT250
     FM211700 15006KT P6SM SCT035 SCT250=



000
FTUS44 KSHV 210500
TAFELD
TAF
KELD 210539Z 2106/2206 00000KT P6SM SKC
     FM210900 00000KT 5SM BR SKC
      TEMPO 2110/2114 3SM BR
     FM211500 VRB03KT P6SM SCT250
     FM211800 12005KT P6SM SCT250
     FM220000 13003KT P6SM SCT250=



000
FTUS44 KSHV 210500
TAFSHV
TAF
KSHV 210539Z 2106/2206 00000KT 4SM BR FEW002
     FM210800 00000KT 2SM BR SCT002
      TEMPO 2108/2112 1/4SM FG BKN002
     FM211200 00000KT 2SM BR SCT002
      TEMPO 2112/2115 1/4SM FG BKN002
     FM211600 10004KT 6SM BR FEW007 SCT250
     FM211800 13005KT P6SM FEW035 SCT250
     FM220000 15005KT P6SM SCT250=



000
FTUS44 KSHV 210500
TAFTYR
TAF
KTYR 210539Z 2106/2206 12004KT 6SM BR FEW020
     FM210800 12004KT 4SM BR SKC
      TEMPO 2108/2112 2SM BR SCT002
     FM211200 12004KT 4SM BR SCT002
      TEMPO 2112/2115 2SM BR
     FM211600 14005KT P6SM SCT008 BKN025
     FM211800 15008KT P6SM SCT008 OVC017
     FM212000 15008KT P6SM BKN030
     FM220000 17007KT P6SM SCT035 SCT250=



000
FTUS44 KSHV 210500
TAFMLU
TAF
KMLU 210539Z 2106/2206 05003KT P6SM SKC
      TEMPO 2110/2114 4SM BR
     FM211500 07003KT P6SM SCT250
     FM211800 11004KT P6SM SCT250=



000
FTUS44 KSHV 210500
TAFGGG
TAF
KGGG 210539Z 2106/2206 00000KT 2SM BR SCT001
      TEMPO 2106/2110 1/4SM FG VV001
     FM211000 00000KT 1SM BR SCT001
      TEMPO 2110/2114 1/4SM FG VV001
     FM211600 14004KT P6SM SCT008 SCT250
     FM211800 15007KT P6SM SCT030 SCT250
     FM220000 16006KT P6SM SCT035 SCT250=



000
FTUS44 KSHV 210400 AAB
TAFLFK
TAF AMD
KLFK 210444Z 2105/2124 04003KT 6SM BR SCT018
     FM210800 00000KT 4SM BR SCT002
      TEMPO 2109/2113 1SM BR BKN002
     FM211300 VRB03KT 1SM BR OVC002
     FM211600 14005KT 6SM BR SCT008 OVC012
     FM211800 15005KT P6SM BKN017=



000
FTUS44 KSHV 210400 AAB
TAFLFK
TAF AMD
KLFK 210444Z 2105/2124 04003KT 6SM BR SCT018
     FM210800 00000KT 4SM BR SCT002
      TEMPO 2109/2113 1SM BR BKN002
     FM211300 VRB03KT 1SM BR OVC002
     FM211600 14005KT 6SM BR SCT008 OVC012
     FM211800 15005KT P6SM BKN017=



000
FTUS44 KSHV 210200 AAA
TAFLFK
TAF AMD
KLFK 210209Z 2102/2124 06004KT P6SM SCT023
      TEMPO 2103/2105 BKN009
     FM210500 VRB03KT P6SM OVC007
     FM210800 00000KT 4SM BR SCT002
      TEMPO 2109/2113 1SM BR BKN002
     FM211300 VRB03KT 1SM BR OVC002
     FM211600 14005KT 6SM BR SCT008 OVC012
     FM211800 15005KT P6SM BKN017=



000
FTUS44 KSHV 210200 AAA
TAFSHV
TAF AMD
KSHV 210201Z 2102/2124 VRB03KT 6SM BR SKC
     FM210400 06003KT 4SM BR SKC
     FM210800 06003KT 2SM BR SCT002
      TEMPO 2108/2112 3/4SM BR BKN002
     FM211600 10004KT 6SM BR FEW008 SCT250
     FM211800 12004KT P6SM FEW035 SCT250=



000
FTUS44 KSHV 202300
TAFGGG
TAF
KGGG 202339Z 2100/2124 VRB03KT P6SM SCT028
      TEMPO 2104/2106 BKN015
     FM210600 09003KT P6SM SCT007 BKN015
     FM210800 09003KT 6SM BR OVC007
      TEMPO 2111/2113 3SM BR OVC003
     FM211300 11003KT 3SM BR OVC003
     FM211600 14005KT 6SM BR SCT008 OVC017
     FM211800 15006KT P6SM SCT020 BKN025=



000
FTUS44 KSHV 202300
TAFMLU
TAF
KMLU 202339Z 2100/2124 03004KT P6SM FEW250
      TEMPO 2111/2113 4SM BR
     FM211500 07004KT P6SM SCT250=



000
FTUS44 KSHV 202300
TAFTYR
TAF
KTYR 202339Z 2100/2124 09003KT P6SM SCT025
      TEMPO 2100/2102 BKN025
     FM210700 10004KT P6SM SCT007 BKN015
     FM210900 11004KT 6SM BR OVC007
     FM211700 15007KT P6SM SCT008 OVC017
     FM212000 15007KT P6SM BKN025=



000
FTUS44 KSHV 202300
TAFTXK
TAF
KTXK 202339Z 2100/2124 VRB03KT P6SM BKN040
      TEMPO 2110/2114 4SM BR SCT040
     FM211400 VRB03KT 5SM BR SCT035 SCT250
     FM211600 12004KT P6SM FEW035 SCT250=



000
FTUS44 KSHV 202300
TAFSHV
TAF
KSHV 202339Z 2100/2124 01003KT 6SM BR BKN008
      TEMPO 2100/2101 SCT009 SCT014
     FM210100 03003KT P6SM SCT010
      TEMPO 2101/2103 BKN010
     FM210400 06003KT 4SM BR FEW015
     FM210800 06003KT 2SM BR SCT003
      TEMPO 2108/2112 3/4SM BR BKN003
     FM211600 10004KT 6SM BR FEW008 SCT250
     FM211800 12004KT P6SM FEW035 SCT250=



000
FTUS44 KSHV 202300
TAFELD
TAF
KELD 202339Z 2100/2124 00000KT P6SM FEW035
     FM210400 00000KT P6SM SKC
     FM210800 00000KT 4SM BR SKC
     FM211500 VRB03KT P6SM SCT250
     FM211800 11004KT P6SM SCT250=



000
FTUS44 KSHV 202300
TAFLFK
TAF
KLFK 202339Z 2100/2124 VRB03KT P6SM BKN023
     FM210400 VRB03KT P6SM OVC015
     FM210600 VRB03KT P6SM OVC007
      TEMPO 2110/2114 3SM BR OVC003
     FM211400 10003KT 4SM BR OVC004
     FM211600 14005KT P6SM SCT008 OVC012
     FM211800 15005KT P6SM BKN017=



000
FTUS44 KSHV 202200 AAA
TAFSHV
TAF AMD
KSHV 202224Z 2022/2118 01004KT 6SM BR OVC008
      TEMPO 2023/2101 SCT009 SCT014
     FM210100 03003KT P6SM SCT010
      TEMPO 2101/2103 BKN010
     FM210400 06003KT 4SM BR FEW015
     FM210800 06003KT 2SM BR SCT003
      TEMPO 2108/2112 3/4SM BR BKN003
     FM211600 10004KT 6SM BR FEW008 SCT250=



000
FTUS44 KSHV 202000 AAA
TAFGGG
TAF AMD
KGGG 202022Z 2020/2118 00000KT P6SM BKN015
     FM202100 05005KT P6SM SCT020
     FM210400 08005KT P6SM SCT020 OVC050
     FM210800 11005KT 4SM BR OVC007
     FM211500 13006KT P6SM SCT007 OVC025=



000
FTUS44 KSHV 202000 AAA
TAFTYR
TAF AMD
KTYR 202021Z 2020/2118 05005KT P6SM BKN020
     FM210400 08005KT P6SM SCT017 OVC050
     FM210800 11005KT 4SM BR OVC007
     FM211500 13006KT P6SM SCT007 OVC025=



000
FTUS44 KSHV 201700
TAFMLU
TAF
KMLU 201732Z 2018/2118 07008KT P6SM FEW015
     FM210000 03004KT P6SM SKC
      TEMPO 2111/2113 4SM BR=



000
FTUS44 KSHV 201700
TAFLFK
TAF
KLFK 201732Z 2018/2118 05007KT P6SM OVC011
     FM202100 05005KT P6SM BKN020
     FM210000 06004KT P6SM BKN025
     FM210400 07003KT P6SM OVC015
     FM210800 07003KT 4SM BR OVC007
     FM211500 10005KT P6SM SCT007 OVC035=



000
FTUS44 KSHV 201700
TAFTXK
TAF
KTXK 201732Z 2018/2118 05005KT 6SM BR SCT017 OVC040
     FM201900 06005KT P6SM BKN015
     FM210500 08004KT P6SM BKN050=



000
FTUS44 KSHV 201700
TAFTYR
TAF
KTYR 201732Z 2018/2118 02005KT P6SM OVC007
     FM202100 05005KT P6SM SCT007 BKN017
     FM210400 08005KT P6SM SCT017 OVC050
     FM210800 11005KT 4SM BR OVC007
     FM211500 13006KT P6SM SCT007 OVC025=



000
FTUS44 KSHV 201700
TAFELD
TAF
KELD 201732Z 2018/2118 06005KT P6SM SCT011
     FM202100 05005KT P6SM BKN017
     FM210000 05005KT P6SM SCT020
     FM210500 08004KT P6SM BKN050=



000
FTUS44 KSHV 201700
TAFGGG
TAF
KGGG 201732Z 2018/2118 08008KT P6SM OVC005
     FM202100 05005KT P6SM SCT005 OVC014
     FM210400 08005KT P6SM SCT014 OVC050
     FM210800 11005KT 4SM BR OVC007
     FM211500 13006KT P6SM SCT007 OVC025=



000
FTUS44 KSHV 201700
TAFSHV
TAF
KSHV 201732Z 2018/2118 03005KT 3SM BR OVC004
      TEMPO 2019/2020 6SM BR OVC006
     FM202100 04005KT P6SM SCT006 BKN040
     FM210000 05005KT P6SM BKN040
     FM210600 06005KT P6SM BKN100
      TEMPO 2111/2113 4SM BR=



000
FTUS44 KSHV 201600 AAA
TAFMLU
TAF AMD
KMLU 201644Z 2017/2112 02005KT P6SM SCT009
     FM201800 03006KT P6SM SCT025
     FM210000 03003KT P6SM FEW030=



000
FTUS44 KSHV 201500 AAB
TAFELD
TAF AMD
KELD 201556Z 2016/2112 05004KT 4SM BR OVC005
     FM202100 05005KT P6SM SCT005 OVC025
     FM210000 05005KT P6SM SCT030
     FM210600 06003KT 4SM BR OVC025
     FM211000 08003KT 2SM BR OVC015=



000
FTUS44 KSHV 201300 AAA
TAFELD
TAF AMD
KELD 201348Z 2014/2112 00000KT 3SM BR BKN006 OVC045
     FM201600 04004KT P6SM SCT030 OVC045
     FM210000 05005KT P6SM SCT030
     FM210600 06003KT 4SM BR OVC025
     FM211000 08003KT 2SM BR OVC015=



000
FTUS44 KSHV 201300 AAA
TAFGGG
TAF AMD
KGGG 201347Z 2014/2112 03004KT P6SM OVC007
      TEMPO 2014/2016 3SM BR BKN004
     FM201800 06005KT P6SM SCT009 OVC015
     FM202100 06005KT P6SM BKN020
     FM210000 08003KT P6SM BKN020
     FM210500 10003KT P6SM OVC015
     FM210800 10003KT 4SM BR OVC007=



000
FTUS44 KSHV 201300 AAA
TAFTYR
TAF AMD
KTYR 201346Z 2014/2112 04004KT 5SM BR OVC003
     FM201600 06005KT 6SM BR BKN007 OVC015
     FM201800 08005KT P6SM SCT009 OVC015
     FM202100 07005KT P6SM BKN020
     FM210400 11003KT P6SM OVC015
     FM210800 13004KT 4SM BR OVC007=



000
FTUS44 KSHV 201100
TAFTXK
TAF
KTXK 201120Z 2012/2112 04005KT 5SM BR OVC008
     FM201600 06004KT 6SM BR SCT012 OVC025
     FM201800 09004KT P6SM BKN025
     FM210500 11004KT P6SM BKN010
     FM210900 11003KT 4SM BR OVC003=



000
FTUS44 KSHV 201100
TAFTYR
TAF
KTYR 201120Z 2012/2112 03007KT 6SM BR OVC004
      TEMPO 2012/2013 3SM BR
     FM201600 06005KT 6SM BR BKN007 OVC015
     FM201800 08005KT P6SM SCT009 OVC015
     FM202100 07005KT P6SM BKN020
     FM210400 11003KT P6SM OVC015
     FM210800 13004KT 4SM BR OVC007=



000
FTUS44 KSHV 201100
TAFGGG
TAF
KGGG 201120Z 2012/2112 06006KT P6SM OVC007
     FM201800 06005KT P6SM SCT009 OVC015
     FM202100 06005KT P6SM BKN020
     FM210000 08003KT P6SM BKN020
     FM210500 10003KT P6SM OVC015
     FM210800 10003KT 4SM BR OVC007=



000
FTUS44 KSHV 201100
TAFSHV
TAF
KSHV 201120Z 2012/2112 02007KT P6SM OVC005
     FM201600 04006KT P6SM OVC009
     FM201800 04006KT P6SM SCT009 OVC012
     FM202000 04005KT P6SM BKN020
     FM210000 05003KT P6SM BKN035
     FM210900 08003KT 5SM BR BKN010=



000
FTUS44 KSHV 201100
TAFMLU
TAF
KMLU 201120Z 2012/2112 03003KT 4SM BR SKC
      TEMPO 2012/2014 4SM BR BKN008
     FM201600 03006KT P6SM BKN020
     FM201800 03006KT P6SM SCT025
     FM210000 03003KT P6SM FEW030=



000
FTUS44 KSHV 201100
TAFELD
TAF
KELD 201120Z 2012/2112 35004KT 6SM BR OVC009
     FM201600 04004KT P6SM SCT030 OVC035
     FM210000 05005KT P6SM SCT030
     FM210600 06003KT 4SM BR OVC025
     FM211000 08003KT 2SM BR OVC015=



000
FTUS44 KSHV 201100
TAFLFK
TAF
KLFK 201120Z 2012/2112 01003KT 6SM BR OVC006
      TEMPO 2012/2013 4SM BR
     FM201600 05005KT 6SM BR OVC007
     FM201900 05006KT P6SM SCT009 OVC013
     FM202100 05005KT P6SM BKN020
     FM210000 04003KT P6SM BKN025
     FM210400 07003KT P6SM OVC015
     FM210800 07003KT 4SM BR OVC007=



000
FTUS44 KSHV 201000 AAA
TAFMLU
TAF AMD
KMLU 201043Z 2011/2106 05005KT P6SM FEW050
      TEMPO 2011/2014 4SM BR BKN008
     FM201600 03006KT P6SM BKN020
     FM201800 03006KT P6SM SCT025
     FM210000 03003KT P6SM FEW030=



000
FTUS44 KSHV 200500 RRA
TAFMLU
TAF
KMLU 200541Z 2006/2106 03006KT 6SM BR OVC008
     FM201000 02004KT 6SM BR SCT008 OVC012
      TEMPO 2010/2014 4SM BR BKN008
     FM201600 03006KT P6SM BKN020
     FM201800 03006KT P6SM SCT025
     FM210000 03003KT P6SM FEW030=



000
FTUS44 KSHV 200500 RRA
TAFTYR
TAF
KTYR 200541Z 2006/2106 03005KT 5SM BR OVC004
      TEMPO 2009/2013 3SM BR
     FM201600 06005KT 6SM BR OVC007
     FM201800 08005KT P6SM SCT009 OVC015
     FM202100 07005KT P6SM BKN020=



000
FTUS44 KSHV 200500 RRA
TAFELD
TAF
KELD 200541Z 2006/2106 05006KT P6SM SCT010 OVC045
      TEMPO 2006/2009 BKN023
     FM200900 03004KT 6SM BR SCT025 OVC040
      TEMPO 2009/2013 4SM BR BKN023
     FM201600 04004KT P6SM SCT030 OVC035
     FM210000 00000KT P6SM SCT030=



000
FTUS44 KSHV 200500 RRA
TAFLFK
TAF
KLFK 200541Z 2006/2106 02005KT 6SM BR OVC006
      TEMPO 2009/2013 4SM BR
     FM201600 05005KT 6SM BR OVC007
     FM201900 05006KT P6SM SCT009 OVC013
     FM202100 05005KT P6SM BKN020
     FM210000 04003KT P6SM BKN025=



000
FTUS44 KSHV 200500 RRA
TAFSHV
TAF
KSHV 200541Z 2006/2106 05007KT 6SM BR OVC007
     FM200800 04005KT 5SM BR OVC006
     FM201600 04006KT P6SM OVC009
     FM201800 04006KT P6SM SCT009 OVC012
     FM202000 04005KT P6SM BKN020
     FM210000 05003KT P6SM BKN025=



000
FTUS44 KSHV 200500 RRA
TAFGGG
TAF
KGGG 200541Z 2006/2106 04004KT 5SM BR OVC007
     FM201600 05004KT 6SM BR OVC007
     FM201800 06005KT P6SM SCT009 OVC015
     FM202100 06005KT P6SM BKN020
     FM210000 08003KT P6SM BKN020=



000
FTUS44 KSHV 200500 RRA
TAFTXK
TAF
KTXK 200541Z 2006/2106 06004KT 5SM BR OVC010
      TEMPO 2008/2011 3SM BR SCT010 OVC025
     FM201100 05003KT 3SM BR FEW008 OVC030
     FM201600 06004KT 6SM BR SCT012 OVC025
     FM201800 07004KT P6SM BKN025=



000
FTUS44 KSHV 200300 AAA
TAFELD
TAF AMD
KELD 200320Z 2003/2024 02004KT P6SM SCT010 OVC022
      TEMPO 2003/2006 BKN013
     FM200800 02003KT 6SM BR SCT025 OVC030
     FM201600 03004KT P6SM SCT030 OVC035=



000
FTUS44 KSHV 200100 CCA
TAFSHV
TAF COR
KSHV 200100Z 2001/2024 03006KT 4SM BR OVC007
      TEMPO 2001/2003 2SM -DZ BR OVC005
     FM200400 03005KT 5SM BR OVC007
     FM201600 04005KT P6SM SCT009 OVC012
     FM202000 04005KT P6SM BKN020=



000
FTUS44 KSHV 200000 AAA
TAFSHV
TAF AMD
KSHV 200058Z 2001/2024 03006KT 4SM BR OVC008
      TEMPO 2001/2003 2SM -DZ BR
     FM200500 03005KT 5SM BR OVC007
     FM201600 04005KT P6SM SCT009 OVC012
     FM202000 04005KT P6SM BKN020=



000
FTUS44 KSHV 192300
TAFTXK
TAF
KTXK 192340Z 2000/2024 04004KT P6SM SCT009 OVC012
      TEMPO 2001/2003 BKN009 OVC012
     FM200300 04004KT 5SM BR OVC007
     FM200700 04004KT 3SM BR OVC005
     FM201600 06004KT 6SM BR BKN009 OVC012
     FM201800 07004KT P6SM BKN015
     FM202100 07004KT P6SM BKN025=



000
FTUS44 KSHV 192300
TAFTYR
TAF
KTYR 192340Z 2000/2024 02007KT 3SM BR OVC006
      TEMPO 2000/2003 2SM -DZ BR OVC003
     FM201600 06005KT 6SM BR OVC007
     FM201800 06005KT P6SM SCT009 OVC015
     FM202200 07005KT P6SM BKN020=



000
FTUS44 KSHV 192300
TAFMLU
TAF
KMLU 192340Z 2000/2024 04006KT P6SM BKN008 OVC100
      TEMPO 2001/2004 4SM BR
     FM200400 03005KT 4SM BR OVC007
     FM201600 03006KT 6SM BR BKN007 OVC012
     FM201800 03006KT P6SM BKN015
     FM202000 04006KT P6SM BKN025=



000
FTUS44 KSHV 192300
TAFSHV
TAF
KSHV 192340Z 2000/2024 03006KT P6SM OVC008
      TEMPO 2000/2002 SCT008 OVC012
     FM200500 03005KT 5SM BR OVC007
     FM201600 04005KT P6SM SCT009 OVC012
     FM202000 04005KT P6SM BKN020=



000
FTUS44 KSHV 192300
TAFGGG
TAF
KGGG 192340Z 2000/2024 03005KT P6SM BKN009 OVC015
     FM200600 03004KT 5SM BR OVC006
     FM201600 05004KT 6SM BR OVC007
     FM201800 06005KT P6SM SCT009 OVC015
     FM202200 07005KT P6SM BKN020=



000
FTUS44 KSHV 192300
TAFELD
TAF
KELD 192340Z 2000/2024 02005KT 6SM BR OVC009
     FM200400 03004KT 5SM BR OVC007
     FM200900 02004KT 3SM BR OVC007
     FM201600 03004KT 6SM BR OVC010
     FM201800 04005KT P6SM BKN015
     FM202000 04005KT P6SM BKN020=



000
FTUS44 KSHV 192300
TAFLFK
TAF
KLFK 192340Z 2000/2024 02005KT P6SM OVC007
     FM200600 03004KT 4SM BR OVC005
     FM201600 05005KT 6SM BR OVC008
     FM201800 05006KT P6SM OVC015=



000
FTUS44 KSHV 192100 AAA
TAFTXK
TAF AMD
KTXK 192109Z 1921/2018 03007KT P6SM OVC013
     FM200100 04005KT P6SM OVC007
     FM200800 05004KT 1SM BR OVC003
     FM201700 06006KT 6SM BR OVC007=



000
FTUS44 KSHV 192100 AAA
TAFTYR
TAF AMD
KTYR 192108Z 1921/2018 01006KT P6SM OVC006
     FM192300 04006KT 6SM BR OVC008
     FM200900 05004KT 1SM BR OVC004
     FM201600 07006KT 6SM BR OVC007=



000
FTUS44 KSHV 192100 AAB
TAFLFK
TAF AMD
KLFK 192107Z 1921/2018 05005KT P6SM OVC007
     FM200900 06005KT 1/2SM FG OVC003
     FM201600 07006KT 6SM BR OVC007=



000
FTUS44 KSHV 191900 AAA
TAFGGG
TAF AMD
KGGG 191907Z 1919/2018 06008KT P6SM OVC007
     FM192300 05006KT 6SM BR OVC011
     FM200900 05004KT 1SM BR OVC004
     FM201600 07006KT 6SM BR OVC007=



000
FTUS44 KSHV 191900 AAA
TAFLFK
TAF AMD
KLFK 191906Z 1919/2018 08010KT P6SM SCT006 OVC030
      TEMPO 1919/1921 BKN006 OVC030
     FM192300 03005KT 6SM BR OVC006
     FM200900 06005KT 1/2SM FG OVC003
     FM201600 07006KT 6SM BR OVC007=



000
FTUS44 KSHV 191900 AAA
TAFSHV
TAF AMD
KSHV 191904Z 1919/2018 09010KT P6SM FEW007 OVC090
      TEMPO 1920/1921 BKN007 OVC090
     FM192100 06008KT 6SM BR OVC007
     FM201000 03005KT 1/2SM FG OVC003
     FM201600 04006KT 6SM BR OVC007=



000
FTUS44 KSHV 191700
TAFTYR
TAF
KTYR 191737Z 1918/2018 06010KT P6SM OVC005
      TEMPO 1918/1919 5SM -RA BR
     FM192300 04006KT 6SM BR OVC008
     FM200900 05004KT 1SM BR OVC004
     FM201600 07006KT 6SM BR OVC007=



000
FTUS44 KSHV 191700
TAFELD
TAF
KELD 191737Z 1918/2018 36005KT 5SM -RA BR FEW013 OVC026
      TEMPO 1918/1919 2SM -RA BR BKN007 OVC013
     FM192100 02006KT 6SM BR OVC007
     FM200200 03004KT 4SM BR OVC006
     FM200900 02004KT 2SM BR OVC004=



000
FTUS44 KSHV 191700
TAFGGG
TAF
KGGG 191737Z 1918/2018 07008KT 6SM BR BKN004 OVC080
      TEMPO 1918/1919 4SM -RA BR OVC004
     FM192300 04006KT 6SM BR OVC008
     FM200900 05004KT 1SM BR OVC004
     FM201600 07006KT 6SM BR OVC007=



000
FTUS44 KSHV 191700
TAFLFK
TAF
KLFK 191737Z 1918/2018 36012KT 6SM -RA BR OVC009
      TEMPO 1918/1920 3SM RA BR OVC006
     FM192300 03005KT 5SM BR OVC006
     FM200900 06005KT 1/2SM FG OVC003
     FM201600 07006KT 6SM BR OVC007=



000
FTUS44 KSHV 191700
TAFTXK
TAF
KTXK 191737Z 1918/2018 07008KT 4SM BR OVC004
     FM192200 05005KT 6SM BR OVC007
     FM200000 05004KT P6SM OVC011
     FM200800 05004KT 1SM BR OVC003
     FM201700 06006KT 6SM BR OVC007=



000
FTUS44 KSHV 191700
TAFSHV
TAF
KSHV 191737Z 1918/2018 02010KT 6SM -RA BR OVC006
      TEMPO 1918/1919 3SM RA BR
     FM192100 04006KT 6SM BR OVC007
     FM201000 02005KT 1/2SM FG OVC003
     FM201600 04006KT 6SM BR OVC007=



000
FTUS44 KSHV 191700
TAFMLU
TAF
KMLU 191737Z 1918/2018 02008KT 5SM -RA BR SCT007 OVC030
      TEMPO 1918/1922 2SM RA BR BKN007 OVC020
     FM200000 03006KT 6SM BR OVC007
     FM200900 01006KT 1SM BR OVC004
     FM201600 03006KT 6SM BR OVC007=



000
FTUS44 KSHV 191300 AAA
TAFSHV
TAF AMD
KSHV 191345Z 1914/2012 35008KT P6SM VCTS BKN008 OVC011CB
      TEMPO 1914/1918 VRB15G25KT 1SM -TSRA
     FM191800 05007KT 5SM -RA BR OVC007
     FM192200 04006KT 6SM BR OVC007
     FM200700 02005KT 4SM BR OVC003=



    US Dept of Commerce
    National Oceanic and Atmospheric Administration
    National Weather Service
    1325 East West Highway
    Silver Spring, MD 20910
    Page Author: NWS Internet Services Team
Disclaimer
Information Quality
Credits
Glossary
Privacy Policy
Freedom of Information Act (FOIA)
About Us
Career Opportunities